Casitas Springs, California
Current Conditions -  °F | °C
As of 3:51 PM on Thursday 27 Nov 2014 (Local Time) from KOXR Reporting Station
Clear Clear  
Wind Chill: 71°   Ceiling: Unl
Heat Index: 71°   Visibility: 10mi
Dew Point: 56°   Wind: 10mph
Humidity: 59%   Direction: 280°W
Pressure: 30.01"   Gusts: NA
Location:  34.3488°N, 119.33°W
Report Text: KOXR 272351Z 28009KT 10SM CLR 22/13 A3001 RMK AO2 SLP160 T02170133 10306 20217 56009
Loading
Personal Weather Stations






























Interactive Weather Map New forecast layout! Learn more

10-Day Weather Forecast

Advertisements
Track Severe Weather on mobile